Time;durP1;ratioP1;P1;durP2;ratioP2;P2;SDS_P1;SDS_P2;PMS_P1;PMS_P2;Temp;Humidity;BMP_temperature;BMP_pressure;BME280_temperature;BME280_humidity;BME280_pressure;Samples;Min_cycle;Max_cycle;Signal;HPM_P1;HPM_P2
2022/06/15 00:01:33;;;;;;;8.82;5.50;;;14.70;99.90;;;;;;5038875;28;20079;-63
2022/06/15 00:04:02;;;;;;;7.00;4.90;;;14.60;99.90;;;;;;5042448;28;20062;-63
2022/06/15 00:06:30;;;;;;;10.18;5.75;;;14.60;99.90;;;;;;5037353;28;20078;-63
2022/06/15 00:08:58;;;;;;;7.78;5.07;;;14.50;99.90;;;;;;5039627;28;20124;-64
2022/06/15 00:11:34;;;;;;;9.70;5.38;;;14.50;99.90;;;;;;5026836;28;20056;-63
2022/06/15 00:14:11;;;;;;;10.18;5.50;;;14.40;99.90;;;;;;5041385;28;20099;-63
2022/06/15 00:16:37;;;;;;;8.82;6.50;;;14.40;99.90;;;;;;5048352;28;20087;-63
2022/06/15 00:19:04;;;;;;;10.88;6.78;;;14.30;99.90;;;;;;5049915;28;20637;-63
2022/06/15 00:21:30;;;;;;;9.05;5.72;;;14.30;99.90;;;;;;5028735;28;20054;-63
2022/06/15 00:23:57;;;;;;;12.32;6.22;;;14.30;99.90;;;;;;5042593;28;20040;-63
2022/06/15 00:26:24;;;;;;;11.15;6.30;;;14.20;99.90;;;;;;5043374;28;20930;-63
2022/06/15 00:28:51;;;;;;;8.15;5.38;;;14.20;99.90;;;;;;5045537;28;20037;-63
2022/06/15 00:31:18;;;;;;;10.02;6.07;;;14.20;99.90;;;;;;5024934;28;20486;-63
2022/06/15 00:33:44;;;;;;;15.07;6.75;;;14.10;99.90;;;;;;5038252;28;20326;-63
2022/06/15 00:36:12;;;;;;;11.18;6.95;;;14.10;99.90;;;;;;5040273;28;20064;-63
2022/06/15 00:38:41;;;;;;;9.98;6.40;;;14.10;99.90;;;;;;5042393;28;20044;-63
2022/06/15 00:41:10;;;;;;;8.35;5.40;;;14.00;99.90;;;;;;5049339;28;20052;-63
2022/06/15 00:43:41;;;;;;;8.98;6.05;;;14.00;99.90;;;;;;5022759;28;21259;-63
2022/06/15 00:46:33;;;;;;;8.48;5.25;;;14.00;99.90;;;;;;5043388;28;20048;-63
2022/06/15 00:49:08;;;;;;;11.25;6.18;;;14.00;99.90;;;;;;5044684;28;20060;-63
2022/06/15 00:51:36;;;;;;;8.38;6.47;;;14.00;99.90;;;;;;5051995;28;20372;-63
2022/06/15 00:54:03;;;;;;;9.98;6.63;;;13.90;99.90;;;;;;5049905;28;20040;-62
2022/06/15 00:56:30;;;;;;;9.20;6.28;;;13.90;99.90;;;;;;5027106;28;20138;-63
2022/06/15 00:59:01;;;;;;;9.38;5.90;;;13.90;99.90;;;;;;5046639;28;20911;-63
2022/06/15 01:01:27;;;;;;;8.98;6.10;;;13.80;99.90;;;;;;5042668;28;20350;-63
2022/06/15 01:03:56;;;;;;;9.10;5.50;;;13.80;99.90;;;;;;5038486;28;20060;-63
2022/06/15 01:06:46;;;;;;;13.13;5.78;;;13.70;99.90;;;;;;5043004;28;20569;-63
2022/06/15 01:09:15;;;;;;;11.70;5.75;;;13.70;99.90;;;;;;5043073;28;20097;-62
2022/06/15 01:11:43;;;;;;;9.70;5.70;;;13.70;99.90;;;;;;5024144;28;20040;-63
2022/06/15 01:14:27;;;;;;;9.38;5.80;;;13.70;99.90;;;;;;5041530;28;20051;-63
2022/06/15 01:17:19;;;;;;;7.75;5.20;;;13.70;99.90;;;;;;5034663;28;20059;-63
2022/06/15 01:20:01;;;;;;;9.20;5.07;;;13.60;99.90;;;;;;5042413;28;20055;-64
2022/06/15 01:22:30;;;;;;;10.75;5.20;;;13.60;99.90;;;;;;5043250;28;20578;-63
2022/06/15 01:25:05;;;;;;;11.85;5.28;;;13.60;99.90;;;;;;5044695;28;20040;-63
2022/06/15 01:27:49;;;;;;;8.15;4.80;;;13.60;99.90;;;;;;5036156;28;20048;-62
2022/06/15 01:30:20;;;;;;;5.32;4.38;;;13.60;99.90;;;;;;5038375;28;20119;-63
2022/06/15 01:33:16;;;;;;;5.80;4.13;;;13.60;99.90;;;;;;5044376;28;20090;-63
2022/06/15 01:36:04;;;;;;;9.77;5.13;;;13.60;99.90;;;;;;5042037;28;20079;-63
2022/06/15 01:39:09;;;;;;;6.43;4.05;;;13.60;99.90;;;;;;5041434;28;20045;-63
2022/06/15 01:41:49;;;;;;;7.53;4.55;;;13.50;99.90;;;;;;4990366;28;20052;-63
2022/06/15 01:44:26;;;;;;;7.65;4.18;;;13.50;99.90;;;;;;5042922;28;20072;-63
2022/06/15 01:46:53;;;;;;;11.65;4.10;;;13.50;99.90;;;;;;5039222;28;20049;-63
2022/06/15 01:49:28;;;;;;;7.32;4.40;;;13.50;99.90;;;;;;5046737;28;20051;-63
2022/06/15 01:51:57;;;;;;;12.43;5.43;;;13.50;99.90;;;;;;5020815;28;20585;-63
2022/06/15 01:54:33;;;;;;;10.00;4.70;;;13.40;99.90;;;;;;5044996;28;20040;-62
2022/06/15 01:57:01;;;;;;;9.68;4.20;;;13.40;99.90;;;;;;5037983;28;20117;-63
2022/06/15 01:59:47;;;;;;;7.05;4.28;;;13.40;99.90;;;;;;5039374;28;20059;-62
2022/06/15 02:02:24;;;;;;;10.93;4.57;;;13.40;99.90;;;;;;5042465;28;20048;-63
2022/06/15 02:05:24;;;;;;;8.15;3.92;;;13.30;99.90;;;;;;5039985;28;20036;-63
2022/06/15 02:07:49;;;;;;;11.20;4.57;;;13.30;99.90;;;;;;5038071;28;20140;-63
2022/06/15 02:10:18;;;;;;;9.18;4.00;;;13.30;99.90;;;;;;5037223;28;20044;-63
2022/06/15 02:12:58;;;;;;;7.00;4.45;;;13.30;99.90;;;;;;5039225;28;20083;-62
2022/06/15 02:15:27;;;;;;;10.45;4.25;;;13.20;99.90;;;;;;5041820;28;21329;-63
2022/06/15 02:17:54;;;;;;;6.22;3.75;;;13.20;99.90;;;;;;5041876;28;20214;-63
2022/06/15 02:20:26;;;;;;;7.35;3.53;;;13.10;99.90;;;;;;5041052;28;20067;-63
2022/06/15 02:22:57;;;;;;;4.18;3.13;;;13.00;99.90;;;;;;5042120;28;20059;-63
2022/06/15 02:25:27;;;;;;;4.30;3.15;;;13.00;99.90;;;;;;5042911;28;20040;-62
2022/06/15 02:27:53;;;;;;;3.95;2.75;;;12.90;99.90;;;;;;5040947;28;20229;-63
2022/06/15 02:30:23;;;;;;;5.03;2.60;;;12.80;99.90;;;;;;5043834;28;20045;-62
2022/06/15 02:32:51;;;;;;;5.47;2.67;;;12.80;99.90;;;;;;5043581;28;20048;-62
2022/06/15 02:35:18;;;;;;;4.88;2.40;;;12.70;99.90;;;;;;5040990;28;20063;-63
2022/06/15 02:37:46;;;;;;;3.13;2.13;;;12.60;99.90;;;;;;5037940;28;20513;-62
2022/06/15 02:40:19;;;;;;;3.85;2.00;;;12.50;99.90;;;;;;5042680;28;20524;-62
2022/06/15 02:42:46;;;;;;;3.13;2.22;;;12.50;99.90;;;;;;5038072;28;20040;-61
2022/06/15 02:45:26;;;;;;;2.42;2.00;;;12.40;99.90;;;;;;5043310;28;20120;-62
2022/06/15 02:47:52;;;;;;;2.03;1.92;;;12.40;99.90;;;;;;5039919;28;20185;-63
2022/06/15 02:50:21;;;;;;;2.97;2.35;;;12.30;99.90;;;;;;5039187;28;20065;-63
2022/06/15 02:53:14;;;;;;;3.50;2.38;;;12.20;99.90;;;;;;5039835;28;20040;-63
2022/06/15 02:55:42;;;;;;;2.72;2.53;;;12.20;99.90;;;;;;5021950;28;20527;-62
2022/06/15 02:58:21;;;;;;;4.50;3.05;;;12.10;99.90;;;;;;5039107;28;20044;-63
2022/06/15 03:00:47;;;;;;;5.10;3.00;;;12.20;99.90;;;;;;5043015;28;20755;-62
2022/06/15 03:03:13;;;;;;;4.82;3.30;;;12.20;99.90;;;;;;5045143;28;20039;-63
2022/06/15 03:05:41;;;;;;;6.13;3.22;;;12.30;99.90;;;;;;5036012;28;20044;-63
2022/06/15 03:08:07;;;;;;;4.78;3.20;;;12.30;99.90;;;;;;5036321;28;20499;-63
2022/06/15 03:10:32;;;;;;;9.60;3.30;;;12.30;99.90;;;;;;5042572;28;20098;-63
2022/06/15 03:12:58;;;;;;;6.70;3.42;;;12.40;99.90;;;;;;5030845;28;20514;-62
2022/06/15 03:15:24;;;;;;;5.47;4.13;;;12.40;99.90;;;;;;5049635;28;20051;-64
2022/06/15 03:17:52;;;;;;;7.95;4.13;;;12.40;99.90;;;;;;5037146;28;20040;-63
2022/06/15 03:20:18;;;;;;;7.28;3.45;;;12.50;99.90;;;;;;5025367;28;20135;-63
2022/06/15 03:22:44;;;;;;;5.63;3.40;;;12.50;99.90;;;;;;5046291;28;21664;-61
2022/06/15 03:25:11;;;;;;;4.35;3.15;;;12.50;99.90;;;;;;5042885;28;20048;-63
2022/06/15 03:27:37;;;;;;;4.70;3.60;;;12.50;99.90;;;;;;5026383;28;20133;-63
2022/06/15 03:30:06;;;;;;;8.43;3.78;;;12.50;99.90;;;;;;5045806;28;20044;-63
2022/06/15 03:32:33;;;;;;;7.50;4.10;;;12.50;99.90;;;;;;5046745;28;20747;-63
2022/06/15 03:34:58;;;;;;;7.50;3.75;;;12.50;99.90;;;;;;5039770;28;20055;-64
2022/06/15 03:37:24;;;;;;;6.18;3.90;;;12.50;99.90;;;;;;5045496;28;20056;-62
2022/06/15 03:39:52;;;;;;;7.05;4.20;;;12.50;99.90;;;;;;5043157;28;20052;-62
2022/06/15 03:42:20;;;;;;;7.25;4.45;;;12.60;99.90;;;;;;5048028;28;20175;-63
2022/06/15 03:44:46;;;;;;;6.65;4.57;;;12.60;99.90;;;;;;5046756;28;22452;-63
2022/06/15 03:47:13;;;;;;;9.77;4.80;;;12.70;99.90;;;;;;5043397;28;20138;-62
2022/06/15 03:49:39;;;;;;;8.68;5.15;;;12.70;99.90;;;;;;5040050;28;20113;-63
2022/06/15 03:52:05;;;;;;;7.53;4.50;;;12.80;99.90;;;;;;5041797;28;20044;-63
2022/06/15 03:54:31;;;;;;;5.55;4.53;;;12.80;99.90;;;;;;5040951;28;20829;-63
2022/06/15 03:56:57;;;;;;;8.73;5.20;;;12.70;99.90;;;;;;5044239;28;20052;-63
2022/06/15 03:59:24;;;;;;;11.20;5.07;;;12.80;99.90;;;;;;5039539;28;20040;-62
2022/06/15 04:01:49;;;;;;;8.10;4.68;;;12.80;99.90;;;;;;5046028;28;20055;-63
2022/06/15 04:04:15;;;;;;;5.80;4.70;;;12.80;99.90;;;;;;5041943;28;20064;-63
2022/06/15 04:06:41;;;;;;;7.97;4.97;;;12.80;99.90;;;;;;5044564;28;20045;-63
2022/06/15 04:09:07;;;;;;;8.25;5.13;;;12.80;99.90;;;;;;5021048;28;20036;-63
2022/06/15 04:14:17;;;;;;;10.13;5.53;;;12.90;99.90;;;;;;5047542;28;20049;-63
2022/06/15 04:16:43;;;;;;;10.10;5.88;;;13.00;99.90;;;;;;5040719;28;20048;-62
2022/06/15 04:19:11;;;;;;;7.93;5.90;;;13.00;99.90;;;;;;5044465;28;20063;-63
2022/06/15 04:21:37;;;;;;;8.80;5.75;;;13.00;99.90;;;;;;5042212;28;20072;-62
2022/06/15 04:24:04;;;;;;;9.85;5.88;;;12.90;99.90;;;;;;5037255;28;20058;-63
2022/06/15 04:26:30;;;;;;;12.05;6.38;;;12.90;99.90;;;;;;5044356;28;20055;-63
2022/06/15 04:28:56;;;;;;;12.18;6.80;;;13.00;99.90;;;;;;5044891;28;20045;-63
2022/06/15 04:31:21;;;;;;;10.15;6.35;;;13.00;99.90;;;;;;5042387;28;20446;-62
2022/06/15 04:33:47;;;;;;;11.90;6.40;;;13.00;99.90;;;;;;5040870;28;20041;-62
2022/06/15 04:36:15;;;;;;;10.07;6.50;;;13.00;99.90;;;;;;5045602;28;20178;-63
2022/06/15 04:38:41;;;;;;;11.48;7.07;;;13.00;99.90;;;;;;5027248;28;20040;-63
2022/06/15 04:41:07;;;;;;;10.88;6.38;;;13.10;99.90;;;;;;5039412;28;20059;-63
2022/06/15 04:43:33;;;;;;;10.70;6.65;;;13.10;99.90;;;;;;5053278;28;20582;-64
2022/06/15 04:46:00;;;;;;;10.07;6.55;;;13.20;99.90;;;;;;5042697;28;20578;-62
2022/06/15 04:48:26;;;;;;;8.05;6.30;;;13.20;99.90;;;;;;5043067;28;20987;-62
2022/06/15 04:50:53;;;;;;;9.85;6.50;;;13.30;99.90;;;;;;5041110;28;20040;-62
2022/06/15 04:53:19;;;;;;;10.75;6.38;;;13.30;99.90;;;;;;5042976;28;20080;-62
2022/06/15 04:55:45;;;;;;;9.73;6.13;;;13.30;99.90;;;;;;5037718;28;20131;-61
2022/06/15 04:58:10;;;;;;;10.50;6.82;;;13.40;99.90;;;;;;5042395;28;20058;-62
2022/06/15 05:00:40;;;;;;;11.73;6.70;;;13.40;99.90;;;;;;5041008;28;20068;-62
2022/06/15 05:03:09;;;;;;;;;;;13.50;99.90;;;;;;5045756;28;20115;-62
2022/06/15 05:05:36;;;;;;;11.18;6.70;;;13.50;99.90;;;;;;5044559;28;19931;-62
2022/06/15 05:08:02;;;;;;;9.15;6.00;;;13.50;99.90;;;;;;5041595;28;20395;-62
2022/06/15 05:10:27;;;;;;;9.55;6.45;;;13.60;99.90;;;;;;5037793;28;20051;-62
2022/06/15 05:12:54;;;;;;;13.02;6.65;;;13.60;99.90;;;;;;5042094;28;20048;-62
2022/06/15 05:15:21;;;;;;;15.00;6.40;;;13.60;99.90;;;;;;5037385;28;20495;-62
2022/06/15 05:17:47;;;;;;;11.77;5.93;;;13.60;99.90;;;;;;5039230;28;20691;-61
2022/06/15 05:20:15;;;;;;;11.02;6.72;;;13.60;99.90;;;;;;5036658;28;20051;-61
2022/06/15 05:22:42;;;;;;;7.93;5.95;;;13.70;99.90;;;;;;5040607;28;20391;-61
2022/06/15 05:25:09;;;;;;;10.85;6.85;;;13.70;99.90;;;;;;5041275;28;20049;-61
2022/06/15 05:27:39;;;;;;;13.68;6.85;;;13.70;99.90;;;;;;5035570;28;20183;-61
2022/06/15 05:30:06;;;;;;;12.93;6.25;;;13.70;99.90;;;;;;5043524;28;20048;-62
2022/06/15 05:32:33;;;;;;;8.23;5.93;;;13.70;99.90;;;;;;5032230;28;21357;-62
2022/06/15 05:35:00;;;;;;;9.60;6.25;;;13.70;99.90;;;;;;5044915;28;20135;-62
2022/06/15 05:37:28;;;;;;;11.88;6.47;;;13.80;99.90;;;;;;5044971;28;20363;-61
2022/06/15 05:39:54;;;;;;;9.55;6.35;;;13.80;99.90;;;;;;5050421;28;20044;-61
2022/06/15 05:42:20;;;;;;;11.00;6.22;;;13.90;99.90;;;;;;5038739;28;20036;-62
2022/06/15 05:47:11;;;;;;;14.70;6.97;;;14.00;99.90;;;;;;5040075;28;20313;-61
2022/06/15 05:49:37;;;;;;;9.32;6.25;;;14.10;99.90;;;;;;5043399;28;20113;-62
2022/06/15 05:52:04;;;;;;;10.85;6.35;;;14.10;99.90;;;;;;5016892;28;20135;-62
2022/06/15 05:54:29;;;;;;;9.20;6.22;;;14.20;99.90;;;;;;5038850;28;20110;-61
2022/06/15 05:56:55;;;;;;;15.75;6.18;;;14.30;99.90;;;;;;5040457;28;20044;-62
2022/06/15 05:59:21;;;;;;;8.43;5.80;;;14.40;99.90;;;;;;5035610;28;20052;-61
2022/06/15 06:01:47;;;;;;;11.70;5.80;;;14.50;99.90;;;;;;5044519;28;20060;-62
2022/06/15 06:04:18;;;;;;;8.80;5.78;;;14.60;99.90;;;;;;5037343;28;20048;-62
2022/06/15 06:06:44;;;;;;;10.10;5.65;;;14.70;99.90;;;;;;5040234;28;20075;-62
2022/06/15 06:09:11;;;;;;;11.40;6.00;;;14.80;99.90;;;;;;5037670;28;20052;-64
2022/06/15 06:11:37;;;;;;;9.65;5.70;;;14.80;99.90;;;;;;5025005;28;20047;-66
2022/06/15 06:14:03;;;;;;;10.40;5.65;;;15.00;99.90;;;;;;5037474;28;20044;-66
2022/06/15 06:16:29;;;;;;;10.93;5.47;;;15.10;99.90;;;;;;5021447;28;20045;-66
2022/06/15 06:18:55;;;;;;;13.40;5.35;;;15.30;99.90;;;;;;5043807;28;20566;-65
2022/06/15 06:21:21;;;;;;;7.10;4.78;;;15.40;99.90;;;;;;5025956;28;20083;-65
2022/06/15 06:23:47;;;;;;;9.32;4.78;;;15.60;99.90;;;;;;5047633;28;20510;-66
2022/06/15 06:26:22;;;;;;;7.93;4.32;;;15.80;99.90;;;;;;5013123;28;20056;-65
2022/06/15 06:28:48;;;;;;;6.15;3.90;;;16.00;99.90;;;;;;5033785;28;20491;-65
2022/06/15 06:31:15;;;;;;;10.60;4.40;;;16.20;99.90;;;;;;5042086;28;20048;-65
2022/06/15 06:33:40;;;;;;;10.23;4.20;;;16.30;99.90;;;;;;5011625;28;22287;-65
2022/06/15 06:36:22;;;;;;;11.13;4.35;;;16.50;99.90;;;;;;5018835;28;20082;-65
2022/06/15 06:38:48;;;;;;;9.35;3.63;;;16.60;99.90;;;;;;5051193;28;20139;-65
2022/06/15 06:41:19;;;;;;;13.23;3.55;;;16.80;99.90;;;;;;5018898;28;20062;-65
2022/06/15 06:43:45;;;;;;;7.95;3.63;;;16.90;99.90;;;;;;5029502;28;20040;-65
2022/06/15 06:46:12;;;;;;;6.53;2.92;;;17.00;99.90;;;;;;5051883;28;20044;-65
2022/06/15 06:48:38;;;;;;;7.80;3.50;;;17.00;99.90;;;;;;5028322;28;20135;-65
2022/06/15 06:51:05;;;;;;;7.47;3.78;;;17.20;99.90;;;;;;5027220;28;20919;-65
2022/06/15 06:53:31;;;;;;;9.85;3.70;;;17.40;99.90;;;;;;5026626;28;20480;-65
2022/06/15 06:56:06;;;;;;;8.73;3.40;;;17.50;99.90;;;;;;5007490;28;20051;-65
2022/06/15 06:58:32;;;;;;;6.38;3.78;;;17.60;99.90;;;;;;5047702;28;20084;-66
2022/06/15 07:00:58;;;;;;;9.52;4.28;;;17.60;99.90;;;;;;5032065;28;20040;-65
2022/06/15 07:03:24;;;;;;;7.72;3.50;;;17.70;99.90;;;;;;5044300;28;21509;-66
2022/06/15 07:05:51;;;;;;;6.18;3.78;;;17.70;99.90;;;;;;5042259;28;20856;-65
2022/06/15 07:08:17;;;;;;;6.55;3.40;;;17.70;99.90;;;;;;5031132;28;20369;-65
2022/06/15 07:10:43;;;;;;;8.70;3.50;;;17.70;99.90;;;;;;5040351;28;20457;-65
2022/06/15 07:13:09;;;;;;;8.27;3.00;;;17.80;99.90;;;;;;5026965;28;20086;-65
2022/06/15 07:15:36;;;;;;;9.98;3.70;;;17.80;99.90;;;;;;5040472;28;21446;-65
2022/06/15 07:18:03;;;;;;;8.50;3.35;;;17.80;99.90;;;;;;5029874;28;21623;-65
2022/06/15 07:20:30;;;;;;;5.45;2.80;;;17.80;99.90;;;;;;5027886;28;20055;-66
2022/06/15 07:22:56;;;;;;;8.35;2.33;;;17.80;99.90;;;;;;5045036;28;20132;-65
2022/06/15 07:25:22;;;;;;;5.18;2.38;;;17.90;99.90;;;;;;5039786;28;20333;-65
2022/06/15 07:27:49;;;;;;;5.63;2.83;;;17.90;99.90;;;;;;5044849;28;20059;-65
2022/06/15 07:30:19;;;;;;;8.20;2.53;;;17.90;99.90;;;;;;5039753;28;20043;-65
2022/06/15 07:32:46;;;;;;;6.95;2.65;;;18.00;99.90;;;;;;5030012;28;20487;-65
2022/06/15 07:35:22;;;;;;;7.15;3.00;;;18.00;99.90;;;;;;5024103;28;20124;-65
2022/06/15 07:37:49;;;;;;;5.68;2.45;;;18.10;99.90;;;;;;5026692;28;20585;-65
2022/06/15 07:40:15;;;;;;;4.38;2.40;;;18.20;99.90;;;;;;5042244;28;20060;-65
2022/06/15 07:42:42;;;;;;;10.27;2.35;;;18.20;99.90;;;;;;4994625;28;20422;-65
2022/06/15 07:45:08;;;;;;;7.45;2.60;;;18.30;99.90;;;;;;5028944;28;21507;-65
2022/06/15 07:50:19;;;;;;;7.18;2.78;;;18.30;99.90;;;;;;5041857;28;20565;-65
2022/06/15 07:52:49;;;;;;;6.68;2.03;;;18.30;99.90;;;;;;5036439;28;20052;-65
2022/06/15 07:55:18;;;;;;;5.30;2.58;;;18.40;99.90;;;;;;5028994;28;20110;-65
2022/06/15 07:57:46;;;;;;;6.15;2.35;;;18.50;99.80;;;;;;5041469;28;20135;-66
2022/06/15 08:00:13;;;;;;;8.27;2.33;;;18.70;99.90;;;;;;5041748;28;20048;-65
2022/06/15 08:02:39;;;;;;;8.57;2.50;;;18.90;99.80;;;;;;5037246;28;21251;-65
2022/06/15 08:05:06;;;;;;;5.18;2.30;;;19.10;99.30;;;;;;5010893;28;20568;-66
2022/06/15 08:07:32;;;;;;;6.38;2.03;;;19.10;98.40;;;;;;5025409;28;20114;-65
2022/06/15 08:09:57;;;;;;;8.40;2.20;;;19.10;98.20;;;;;;5038663;28;20052;-66
2022/06/15 08:12:23;;;;;;;4.93;2.05;;;19.20;98.30;;;;;;5046077;28;20158;-65
2022/06/15 08:14:55;;;;;;;6.85;2.40;;;19.40;98.40;;;;;;5031385;28;20121;-66
2022/06/15 08:17:43;;;;;;;9.13;2.78;;;19.60;98.00;;;;;;5056280;28;21035;-65
2022/06/15 08:20:22;;;;;;;7.05;2.45;;;19.80;97.80;;;;;;5029637;28;20160;-66
2022/06/15 08:22:53;;;;;;;5.00;2.20;;;19.90;97.80;;;;;;5038114;28;20166;-65
2022/06/15 08:25:33;;;;;;;6.45;2.45;;;20.00;97.40;;;;;;5040013;28;20036;-66
2022/06/15 08:28:00;;;;;;;7.00;2.35;;;20.20;97.10;;;;;;5042279;28;20122;-64
2022/06/15 08:30:27;;;;;;;8.50;2.45;;;20.20;96.50;;;;;;5054874;28;20036;-65
2022/06/15 08:32:53;;;;;;;6.10;2.33;;;20.40;96.50;;;;;;5054134;28;20550;-65
2022/06/15 08:35:20;;;;;;;7.85;2.30;;;20.30;95.70;;;;;;5052208;28;20036;-65
2022/06/15 08:37:46;;;;;;;4.85;2.00;;;20.30;95.40;;;;;;5039211;28;20086;-65
2022/06/15 08:40:13;;;;;;;5.47;2.30;;;20.30;95.60;;;;;;5059130;28;20052;-65
2022/06/15 08:42:59;;;;;;;5.35;2.20;;;20.30;96.10;;;;;;5045027;28;20040;-66
2022/06/15 08:45:35;;;;;;;9.27;2.60;;;20.40;95.40;;;;;;5055401;28;20048;-65
2022/06/15 08:48:25;;;;;;;7.28;2.60;;;20.70;95.10;;;;;;5041583;28;21059;-65
2022/06/15 08:51:04;;;;;;;6.35;2.47;;;20.70;94.80;;;;;;5042700;28;20036;-65
2022/06/15 08:54:01;;;;;;;8.85;2.90;;;20.70;94.30;;;;;;5040293;28;20119;-65
2022/06/15 08:56:43;;;;;;;3.80;2.10;;;20.80;94.60;;;;;;5041194;28;20114;-65
2022/06/15 08:59:35;;;;;;;3.85;2.10;;;20.70;94.50;;;;;;5044924;28;20044;-65
2022/06/15 09:02:04;;;;;;;5.35;2.20;;;20.80;94.60;;;;;;5024193;28;20048;-65
2022/06/15 09:04:48;;;;;;;4.28;2.15;;;20.90;94.80;;;;;;5025962;28;20152;-65
2022/06/15 09:07:34;;;;;;;7.50;3.13;;;21.10;94.40;;;;;;5035027;28;20160;-65
2022/06/15 09:10:28;;;;;;;7.45;2.70;;;21.20;94.10;;;;;;5040351;28;20053;-65
2022/06/15 09:13:06;;;;;;;4.40;2.80;;;21.10;94.40;;;;;;5041865;28;20041;-65
2022/06/15 09:15:48;;;;;;;5.65;2.35;;;21.20;94.60;;;;;;5039745;28;22381;-65
2022/06/15 09:18:35;;;;;;;7.37;2.70;;;21.30;94.70;;;;;;5041463;28;20056;-65
2022/06/15 09:21:24;;;;;;;7.93;2.58;;;21.50;94.50;;;;;;5038768;28;20415;-65
2022/06/15 09:24:02;;;;;;;5.10;2.20;;;21.60;94.00;;;;;;5026006;28;20098;-65
2022/06/15 09:26:49;;;;;;;5.20;2.00;;;21.70;92.80;;;;;;5041204;28;20045;-65
2022/06/15 09:29:41;;;;;;;3.45;1.95;;;21.80;92.30;;;;;;5055596;28;20398;-65
2022/06/15 09:32:21;;;;;;;3.33;1.80;;;21.80;92.20;;;;;;5041371;28;20629;-65
2022/06/15 09:35:07;;;;;;;8.23;2.20;;;22.00;91.90;;;;;;5039902;28;20037;-65
2022/06/15 09:37:36;;;;;;;6.57;2.22;;;22.00;89.60;;;;;;5040379;28;20056;-65
2022/06/15 09:40:04;;;;;;;8.70;2.10;;;21.90;90.70;;;;;;5037790;28;20048;-65
2022/06/15 09:42:42;;;;;;;4.68;1.92;;;22.00;90.30;;;;;;5041457;28;20775;-65
2022/06/15 09:45:16;;;;;;;7.35;2.17;;;22.10;90.20;;;;;;5051470;28;20056;-64
2022/06/15 09:47:57;;;;;;;7.35;2.08;;;22.30;88.30;;;;;;5038927;28;20044;-65
2022/06/15 09:51:01;;;;;;;5.97;2.08;;;22.30;86.20;;;;;;5032970;28;20147;-65
2022/06/15 09:53:48;;;;;;;4.15;2.17;;;22.00;85.30;;;;;;5044216;28;20487;-65
2022/06/15 09:56:17;;;;;;;5.00;2.05;;;21.90;87.00;;;;;;5041280;28;20079;-64
2022/06/15 09:59:00;;;;;;;6.65;2.45;;;22.00;86.80;;;;;;5041628;28;20044;-66
2022/06/15 10:01:36;;;;;;;8.43;2.17;;;22.10;87.80;;;;;;5044651;28;20115;-66
2022/06/15 10:04:05;;;;;;;4.75;2.13;;;22.30;86.20;;;;;;5014325;28;20410;-66
2022/06/15 10:06:42;;;;;;;5.28;2.17;;;22.50;83.70;;;;;;5044915;28;20036;-65
2022/06/15 10:09:11;;;;;;;7.32;2.22;;;22.50;84.80;;;;;;5043538;28;20044;-65
2022/06/15 10:11:46;;;;;;;6.40;1.90;;;22.60;83.80;;;;;;5043730;28;20052;-65
2022/06/15 10:14:23;;;;;;;5.60;2.05;;;22.80;81.80;;;;;;5045178;28;20041;-65
2022/06/15 10:17:05;;;;;;;5.55;1.80;;;22.90;81.40;;;;;;5046206;28;20094;-66
2022/06/15 10:19:34;;;;;;;4.18;1.75;;;23.00;82.00;;;;;;5035197;28;20056;-66
2022/06/15 10:22:11;;;;;;;5.25;2.05;;;23.10;79.80;;;;;;5048515;28;20044;-65
2022/06/15 10:24:40;;;;;;;5.28;2.30;;;23.10;79.50;;;;;;5053846;28;20075;-67
2022/06/15 10:27:37;;;;;;;7.88;2.10;;;23.20;79.10;;;;;;5029353;28;20087;-65
2022/06/15 10:30:12;;;;;;;5.63;2.55;;;23.20;77.40;;;;;;5033973;28;20049;-66
2022/06/15 10:32:57;;;;;;;8.02;2.80;;;23.00;76.00;;;;;;5037024;28;22545;-66
2022/06/15 10:35:24;;;;;;;7.70;2.40;;;22.80;75.70;;;;;;5028879;28;20144;-65
2022/06/15 10:37:54;;;;;;;4.88;2.30;;;22.80;75.70;;;;;;5052269;28;20037;-65
2022/06/15 10:40:23;;;;;;;5.35;2.58;;;22.90;77.10;;;;;;5055021;28;21045;-65
2022/06/15 10:43:35;;;;;;;4.65;2.33;;;23.00;76.50;;;;;;5048997;28;20132;-65
2022/06/15 10:46:07;;;;;;;11.93;2.90;;;23.10;76.40;;;;;;5052624;28;20057;-65
2022/06/15 10:48:41;;;;;;;5.40;3.10;;;23.20;75.90;;;;;;5030574;28;20084;-65
2022/06/15 10:51:08;;;;;;;10.35;3.30;;;23.30;75.60;;;;;;5044369;28;20499;-65
2022/06/15 10:53:34;;;;;;;5.28;3.08;;;23.40;76.10;;;;;;5045946;28;20551;-65
2022/06/15 11:04:27;;;;;;;8.02;2.80;;;23.90;76.40;;;;;;5044670;28;20545;-65
2022/06/15 11:07:07;;;;;;;4.88;2.50;;;24.00;75.10;;;;;;5051185;28;20044;-65
2022/06/15 11:09:41;;;;;;;5.15;2.38;;;23.90;70.70;;;;;;5035538;28;20041;-65
2022/06/15 11:12:32;;;;;;;5.60;2.55;;;23.60;72.10;;;;;;5047648;28;20051;-66
2022/06/15 11:18:01;;;;;;;4.72;2.30;;;23.60;69.90;;;;;;5047230;28;20105;-65
2022/06/15 11:18:44;;;;;;;6.60;2.45;;;23.60;69.60;;;;;;5025309;28;20131;-65
2022/06/15 11:21:23;;;;;;;5.20;2.40;;;23.70;72.00;;;;;;5048910;28;20056;-65
2022/06/15 11:24:11;;;;;;;5.47;2.40;;;23.60;70.70;;;;;;5040495;28;20131;-65
2022/06/15 11:26:52;;;;;;;8.25;2.30;;;23.60;71.20;;;;;;5048964;28;20033;-66
2022/06/15 11:29:29;;;;;;;5.63;2.10;;;23.90;70.20;;;;;;5043801;28;20048;-65
2022/06/15 11:32:01;;;;;;;4.13;2.25;;;24.00;71.00;;;;;;5046961;28;21313;-65
2022/06/15 11:34:33;;;;;;;4.00;2.15;;;24.10;71.50;;;;;;5045642;28;20074;-65
2022/06/15 11:37:05;;;;;;;4.95;2.42;;;24.00;70.60;;;;;;5051491;28;20198;-65
2022/06/15 11:39:43;;;;;;;5.53;2.75;;;24.00;69.50;;;;;;5052838;28;20414;-65
2022/06/15 11:42:12;;;;;;;8.02;3.40;;;23.80;68.20;;;;;;5050433;28;20067;-65
2022/06/15 11:44:42;;;;;;;6.20;3.20;;;23.50;69.00;;;;;;5028896;28;20052;-65
2022/06/15 11:47:27;;;;;;;7.00;3.22;;;23.30;69.20;;;;;;5045850;28;20048;-65
2022/06/15 11:50:32;;;;;;;9.23;3.45;;;23.10;68.10;;;;;;5036141;28;20114;-66
2022/06/15 11:53:10;;;;;;;5.57;3.17;;;22.90;69.00;;;;;;5048170;28;20037;-65
2022/06/15 11:55:45;;;;;;;6.45;3.30;;;22.80;69.80;;;;;;5015196;28;20044;-66
2022/06/15 11:58:43;;;;;;;5.63;3.08;;;22.70;69.60;;;;;;5049947;28;20050;-66
2022/06/15 12:01:15;;;;;;;7.68;3.15;;;22.70;69.50;;;;;;5052936;28;20051;-65
2022/06/15 12:03:58;;;;;;;8.43;3.40;;;22.60;68.80;;;;;;5047219;28;20134;-65
2022/06/15 12:06:33;;;;;;;5.05;3.05;;;22.60;67.60;;;;;;5030615;28;20056;-66
2022/06/15 12:09:08;;;;;;;7.80;3.05;;;22.60;70.10;;;;;;5036031;28;20094;-66
2022/06/15 12:14:49;;;;;;;5.32;2.80;;;22.80;67.10;;;;;;5059473;28;20040;-64
2022/06/15 12:17:38;;;;;;;5.65;2.70;;;22.70;66.70;;;;;;5059515;28;20094;-65
2022/06/15 12:20:13;;;;;;;5.25;3.00;;;22.60;66.50;;;;;;5035523;28;20047;-66
2022/06/15 12:23:01;;;;;;;6.43;2.58;;;22.50;66.00;;;;;;5049328;28;20044;-66
2022/06/15 12:25:56;;;;;;;6.57;3.10;;;22.40;65.50;;;;;;5055681;28;20075;-66
2022/06/15 12:28:31;;;;;;;6.95;3.13;;;22.30;66.00;;;;;;5051761;28;20044;-65
2022/06/15 12:31:07;;;;;;;7.15;2.97;;;22.30;67.30;;;;;;5050013;28;20578;-66
2022/06/15 12:33:37;;;;;;;6.07;3.00;;;22.30;68.10;;;;;;5050597;28;20631;-66
2022/06/15 12:36:18;;;;;;;10.05;3.35;;;22.40;68.20;;;;;;5030155;28;20051;-68
2022/06/15 12:39:01;;;;;;;4.57;2.63;;;22.80;69.40;;;;;;5045937;28;20108;-65
2022/06/15 12:44:52;;;;;;;7.80;3.20;;;23.60;66.50;;;;;;5002432;28;20515;-65
2022/06/15 12:47:21;;;;;;;8.18;2.78;;;23.50;64.60;;;;;;5000717;28;20053;-65
2022/06/15 12:50:24;;;;;;;4.32;2.90;;;23.70;65.90;;;;;;5012773;28;20053;-66
2022/06/15 12:53:23;;;;;;;4.65;2.80;;;24.00;64.70;;;;;;5043605;28;20551;-66
2022/06/15 12:56:01;;;;;;;6.38;2.70;;;23.90;62.90;;;;;;5044471;28;20147;-65
2022/06/15 12:58:54;;;;;;;8.40;2.80;;;23.80;61.40;;;;;;5044219;28;20074;-66
2022/06/15 13:01:24;;;;;;;4.75;2.50;;;23.90;62.70;;;;;;5035989;28;20186;-65
2022/06/15 13:03:59;;;;;;;7.75;2.67;;;24.00;62.50;;;;;;5040759;28;22222;-65
2022/06/15 13:06:35;;;;;;;4.57;2.30;;;24.00;61.50;;;;;;5042078;28;20051;-65
2022/06/15 13:09:18;;;;;;;5.50;2.22;;;24.10;61.20;;;;;;5039832;28;20048;-66
2022/06/15 13:12:07;;;;;;;6.18;2.70;;;24.30;60.70;;;;;;5011019;28;20049;-66
2022/06/15 13:14:58;;;;;;;9.35;2.78;;;24.40;61.30;;;;;;5044461;28;20082;-65
2022/06/15 13:17:27;;;;;;;4.10;2.40;;;24.70;60.40;;;;;;5024548;28;20063;-65
2022/06/15 13:20:07;;;;;;;4.30;2.90;;;24.80;60.00;;;;;;5042888;28;20040;-66
2022/06/15 13:22:40;;;;;;;5.03;2.20;;;24.90;58.80;;;;;;5038933;28;20056;-66
2022/06/15 13:25:11;;;;;;;3.40;1.90;;;24.80;58.80;;;;;;5045796;28;20055;-66
2022/06/15 13:28:03;;;;;;;3.78;2.03;;;25.00;57.60;;;;;;5042631;28;20073;-66
2022/06/15 13:30:30;;;;;;;;;;;25.20;59.00;;;;;;5035909;28;20063;-65
2022/06/15 13:33:08;;;;;;;6.15;2.30;;;25.40;58.80;;;;;;5037347;28;20970;-65
2022/06/15 13:35:41;;;;;;;5.60;2.40;;;25.60;57.60;;;;;;5011659;28;20482;-65
2022/06/15 13:38:32;;;;;;;4.22;2.00;;;25.60;57.00;;;;;;5038260;28;20387;-66